sensor_id;sensor_type;location;lat;lon;timestamp;P1;durP1;ratioP1;P2;durP2;ratioP2
66585;SDS011;53444;45.822;16.092;2024-01-30T00:02:18;27.45;;;14.00;;
66585;SDS011;53444;45.822;16.092;2024-01-30T00:04:45;30.60;;;13.48;;
66585;SDS011;53444;45.822;16.092;2024-01-30T00:07:13;31.80;;;13.85;;
66585;SDS011;53444;45.822;16.092;2024-01-30T00:09:40;31.73;;;14.57;;
66585;SDS011;53444;45.822;16.092;2024-01-30T00:12:06;30.55;;;15.02;;
66585;SDS011;53444;45.822;16.092;2024-01-30T00:14:33;27.95;;;14.45;;
66585;SDS011;53444;45.822;16.092;2024-01-30T00:17:00;30.52;;;14.93;;
66585;SDS011;53444;45.822;16.092;2024-01-30T00:19:26;29.27;;;15.02;;
66585;SDS011;53444;45.822;16.092;2024-01-30T00:21:53;35.27;;;15.23;;
66585;SDS011;53444;45.822;16.092;2024-01-30T00:24:21;30.00;;;14.98;;
66585;SDS011;53444;45.822;16.092;2024-01-30T00:26:47;29.58;;;14.43;;
66585;SDS011;53444;45.822;16.092;2024-01-30T00:29:14;27.95;;;13.32;;
66585;SDS011;53444;45.822;16.092;2024-01-30T00:31:44;28.08;;;14.45;;
66585;SDS011;53444;45.822;16.092;2024-01-30T00:34:11;31.50;;;14.53;;
66585;SDS011;53444;45.822;16.092;2024-01-30T00:36:37;31.58;;;13.50;;
66585;SDS011;53444;45.822;16.092;2024-01-30T00:39:04;28.67;;;13.80;;
66585;SDS011;53444;45.822;16.092;2024-01-30T00:41:35;32.47;;;14.23;;
66585;SDS011;53444;45.822;16.092;2024-01-30T00:44:02;27.58;;;13.23;;
66585;SDS011;53444;45.822;16.092;2024-01-30T00:46:28;27.90;;;13.33;;
66585;SDS011;53444;45.822;16.092;2024-01-30T00:48:55;26.60;;;12.43;;
66585;SDS011;53444;45.822;16.092;2024-01-30T00:51:22;33.38;;;13.45;;
66585;SDS011;53444;45.822;16.092;2024-01-30T00:53:48;28.10;;;12.82;;
66585;SDS011;53444;45.822;16.092;2024-01-30T00:56:15;27.67;;;11.75;;
66585;SDS011;53444;45.822;16.092;2024-01-30T00:58:44;25.70;;;11.77;;
66585;SDS011;53444;45.822;16.092;2024-01-30T01:01:11;30.30;;;12.57;;
66585;SDS011;53444;45.822;16.092;2024-01-30T01:03:47;30.23;;;12.25;;
66585;SDS011;53444;45.822;16.092;2024-01-30T01:06:44;29.77;;;12.77;;
66585;SDS011;53444;45.822;16.092;2024-01-30T01:09:11;26.80;;;11.95;;
66585;SDS011;53444;45.822;16.092;2024-01-30T01:11:38;23.07;;;11.60;;
66585;SDS011;53444;45.822;16.092;2024-01-30T01:14:06;26.65;;;10.32;;
66585;SDS011;53444;45.822;16.092;2024-01-30T01:16:33;27.70;;;12.55;;
66585;SDS011;53444;45.822;16.092;2024-01-30T01:19:26;23.50;;;11.23;;
66585;SDS011;53444;45.822;16.092;2024-01-30T01:24:36;25.97;;;11.63;;
66585;SDS011;53444;45.822;16.092;2024-01-30T01:28:22;22.52;;;11.07;;
66585;SDS011;53444;45.822;16.092;2024-01-30T01:30:23;23.92;;;11.43;;
66585;SDS011;53444;45.822;16.092;2024-01-30T01:32:59;23.67;;;10.95;;
66585;SDS011;53444;45.822;16.092;2024-01-30T01:35:27;25.73;;;11.43;;
66585;SDS011;53444;45.822;16.092;2024-01-30T01:37:54;25.40;;;11.30;;
66585;SDS011;53444;45.822;16.092;2024-01-30T01:40:22;25.58;;;10.77;;
66585;SDS011;53444;45.822;16.092;2024-01-30T01:42:49;27.45;;;12.43;;
66585;SDS011;53444;45.822;16.092;2024-01-30T01:45:17;21.45;;;10.70;;
66585;SDS011;53444;45.822;16.092;2024-01-30T01:47:47;24.50;;;11.27;;
66585;SDS011;53444;45.822;16.092;2024-01-30T01:50:16;27.80;;;11.20;;
66585;SDS011;53444;45.822;16.092;2024-01-30T01:52:45;24.15;;;10.50;;
66585;SDS011;53444;45.822;16.092;2024-01-30T01:55:15;25.60;;;11.80;;
66585;SDS011;53444;45.822;16.092;2024-01-30T01:57:42;24.98;;;11.23;;
66585;SDS011;53444;45.822;16.092;2024-01-30T02:00:10;25.85;;;11.38;;
66585;SDS011;53444;45.822;16.092;2024-01-30T02:02:38;27.27;;;11.73;;
66585;SDS011;53444;45.822;16.092;2024-01-30T02:05:07;30.27;;;11.93;;
66585;SDS011;53444;45.822;16.092;2024-01-30T02:07:34;25.27;;;10.73;;
66585;SDS011;53444;45.822;16.092;2024-01-30T02:10:01;32.28;;;12.82;;
66585;SDS011;53444;45.822;16.092;2024-01-30T02:12:28;49.17;;;16.08;;
66585;SDS011;53444;45.822;16.092;2024-01-30T02:14:55;34.57;;;13.23;;
66585;SDS011;53444;45.822;16.092;2024-01-30T02:17:23;72.00;;;22.85;;
66585;SDS011;53444;45.822;16.092;2024-01-30T02:19:49;54.08;;;18.20;;
66585;SDS011;53444;45.822;16.092;2024-01-30T02:22:18;32.17;;;13.27;;
66585;SDS011;53444;45.822;16.092;2024-01-30T02:24:45;32.80;;;13.52;;
66585;SDS011;53444;45.822;16.092;2024-01-30T02:27:12;26.67;;;12.27;;
66585;SDS011;53444;45.822;16.092;2024-01-30T02:29:39;27.88;;;11.32;;
66585;SDS011;53444;45.822;16.092;2024-01-30T02:32:06;26.92;;;10.70;;
66585;SDS011;53444;45.822;16.092;2024-01-30T02:34:50;26.35;;;11.23;;
66585;SDS011;53444;45.822;16.092;2024-01-30T02:37:19;21.98;;;9.88;;
66585;SDS011;53444;45.822;16.092;2024-01-30T02:39:55;22.63;;;9.63;;
66585;SDS011;53444;45.822;16.092;2024-01-30T02:42:21;26.27;;;10.85;;
66585;SDS011;53444;45.822;16.092;2024-01-30T02:44:59;25.05;;;10.93;;
66585;SDS011;53444;45.822;16.092;2024-01-30T02:47:26;26.38;;;12.45;;
66585;SDS011;53444;45.822;16.092;2024-01-30T02:49:53;29.40;;;12.25;;
66585;SDS011;53444;45.822;16.092;2024-01-30T02:52:21;29.70;;;13.73;;
66585;SDS011;53444;45.822;16.092;2024-01-30T02:54:48;28.95;;;11.52;;
66585;SDS011;53444;45.822;16.092;2024-01-30T02:57:15;30.80;;;12.70;;
66585;SDS011;53444;45.822;16.092;2024-01-30T02:59:41;28.10;;;11.88;;
66585;SDS011;53444;45.822;16.092;2024-01-30T03:02:08;26.90;;;11.88;;
66585;SDS011;53444;45.822;16.092;2024-01-30T03:04:35;22.77;;;11.50;;
66585;SDS011;53444;45.822;16.092;2024-01-30T03:07:02;24.15;;;11.20;;
66585;SDS011;53444;45.822;16.092;2024-01-30T03:09:30;28.15;;;11.65;;
66585;SDS011;53444;45.822;16.092;2024-01-30T03:11:57;26.58;;;13.05;;
66585;SDS011;53444;45.822;16.092;2024-01-30T03:14:23;30.55;;;14.27;;
66585;SDS011;53444;45.822;16.092;2024-01-30T03:16:50;26.90;;;12.47;;
66585;SDS011;53444;45.822;16.092;2024-01-30T03:19:17;27.83;;;12.05;;
66585;SDS011;53444;45.822;16.092;2024-01-30T03:21:44;27.00;;;11.73;;
66585;SDS011;53444;45.822;16.092;2024-01-30T03:24:11;28.05;;;11.80;;
66585;SDS011;53444;45.822;16.092;2024-01-30T03:26:39;20.70;;;10.20;;
66585;SDS011;53444;45.822;16.092;2024-01-30T03:29:06;22.87;;;10.13;;
66585;SDS011;53444;45.822;16.092;2024-01-30T03:31:32;23.15;;;10.02;;
66585;SDS011;53444;45.822;16.092;2024-01-30T03:33:59;26.75;;;10.60;;
66585;SDS011;53444;45.822;16.092;2024-01-30T03:36:26;27.42;;;10.77;;
66585;SDS011;53444;45.822;16.092;2024-01-30T03:38:53;23.77;;;10.13;;
66585;SDS011;53444;45.822;16.092;2024-01-30T03:41:20;26.07;;;10.17;;
66585;SDS011;53444;45.822;16.092;2024-01-30T03:43:48;22.17;;;10.38;;
66585;SDS011;53444;45.822;16.092;2024-01-30T03:46:15;24.95;;;10.88;;
66585;SDS011;53444;45.822;16.092;2024-01-30T03:48:42;23.52;;;9.98;;
66585;SDS011;53444;45.822;16.092;2024-01-30T03:51:09;18.13;;;9.43;;
66585;SDS011;53444;45.822;16.092;2024-01-30T03:53:39;20.10;;;9.23;;
66585;SDS011;53444;45.822;16.092;2024-01-30T03:56:06;20.73;;;9.88;;
66585;SDS011;53444;45.822;16.092;2024-01-30T03:58:33;20.52;;;9.38;;
66585;SDS011;53444;45.822;16.092;2024-01-30T04:01:01;23.40;;;10.38;;
66585;SDS011;53444;45.822;16.092;2024-01-30T04:03:28;24.60;;;10.65;;
66585;SDS011;53444;45.822;16.092;2024-01-30T04:05:55;24.70;;;9.90;;
66585;SDS011;53444;45.822;16.092;2024-01-30T04:08:22;28.10;;;10.48;;
66585;SDS011;53444;45.822;16.092;2024-01-30T04:10:49;22.08;;;10.02;;
66585;SDS011;53444;45.822;16.092;2024-01-30T04:13:16;23.52;;;10.45;;
66585;SDS011;53444;45.822;16.092;2024-01-30T04:15:42;18.98;;;8.73;;
66585;SDS011;53444;45.822;16.092;2024-01-30T04:18:11;20.80;;;9.80;;
66585;SDS011;53444;45.822;16.092;2024-01-30T04:20:38;20.42;;;9.65;;
66585;SDS011;53444;45.822;16.092;2024-01-30T04:23:05;24.20;;;9.75;;
66585;SDS011;53444;45.822;16.092;2024-01-30T04:25:31;22.25;;;10.27;;
66585;SDS011;53444;45.822;16.092;2024-01-30T04:27:58;18.63;;;9.55;;
66585;SDS011;53444;45.822;16.092;2024-01-30T04:30:25;23.20;;;10.17;;
66585;SDS011;53444;45.822;16.092;2024-01-30T04:32:52;24.42;;;11.15;;
66585;SDS011;53444;45.822;16.092;2024-01-30T04:35:20;23.02;;;9.65;;
66585;SDS011;53444;45.822;16.092;2024-01-30T04:37:50;22.45;;;10.23;;
66585;SDS011;53444;45.822;16.092;2024-01-30T04:40:18;24.75;;;10.10;;
66585;SDS011;53444;45.822;16.092;2024-01-30T04:42:44;24.17;;;10.60;;
66585;SDS011;53444;45.822;16.092;2024-01-30T04:45:11;18.38;;;8.82;;
66585;SDS011;53444;45.822;16.092;2024-01-30T04:47:38;23.95;;;9.57;;
66585;SDS011;53444;45.822;16.092;2024-01-30T04:50:06;15.93;;;8.60;;
66585;SDS011;53444;45.822;16.092;2024-01-30T04:52:35;21.83;;;10.77;;
66585;SDS011;53444;45.822;16.092;2024-01-30T04:55:02;23.23;;;9.83;;
66585;SDS011;53444;45.822;16.092;2024-01-30T04:57:29;23.10;;;9.77;;
66585;SDS011;53444;45.822;16.092;2024-01-30T04:59:56;26.98;;;9.68;;
66585;SDS011;53444;45.822;16.092;2024-01-30T05:02:23;31.25;;;11.68;;
66585;SDS011;53444;45.822;16.092;2024-01-30T05:04:50;26.67;;;11.30;;
66585;SDS011;53444;45.822;16.092;2024-01-30T05:07:17;29.97;;;10.47;;
66585;SDS011;53444;45.822;16.092;2024-01-30T05:09:45;21.33;;;10.07;;
66585;SDS011;53444;45.822;16.092;2024-01-30T05:12:12;26.48;;;10.38;;
66585;SDS011;53444;45.822;16.092;2024-01-30T05:14:39;30.02;;;10.00;;
66585;SDS011;53444;45.822;16.092;2024-01-30T05:17:06;23.08;;;10.65;;
66585;SDS011;53444;45.822;16.092;2024-01-30T05:19:33;26.57;;;11.47;;
66585;SDS011;53444;45.822;16.092;2024-01-30T05:21:59;27.02;;;12.18;;
66585;SDS011;53444;45.822;16.092;2024-01-30T05:24:26;22.08;;;12.07;;
66585;SDS011;53444;45.822;16.092;2024-01-30T05:26:54;33.47;;;12.23;;
66585;SDS011;53444;45.822;16.092;2024-01-30T05:29:21;29.85;;;11.65;;
66585;SDS011;53444;45.822;16.092;2024-01-30T05:31:48;28.87;;;12.87;;
66585;SDS011;53444;45.822;16.092;2024-01-30T05:37:16;41.72;;;15.18;;
66585;SDS011;53444;45.822;16.092;2024-01-30T05:39:43;41.40;;;16.55;;
66585;SDS011;53444;45.822;16.092;2024-01-30T05:42:11;27.58;;;12.85;;
66585;SDS011;53444;45.822;16.092;2024-01-30T05:44:38;34.70;;;12.43;;
66585;SDS011;53444;45.822;16.092;2024-01-30T05:47:05;27.50;;;12.52;;
66585;SDS011;53444;45.822;16.092;2024-01-30T05:49:31;29.00;;;11.90;;
66585;SDS011;53444;45.822;16.092;2024-01-30T05:51:58;26.52;;;11.05;;
66585;SDS011;53444;45.822;16.092;2024-01-30T05:54:28;24.15;;;10.27;;
66585;SDS011;53444;45.822;16.092;2024-01-30T05:56:55;28.87;;;10.43;;
66585;SDS011;53444;45.822;16.092;2024-01-30T05:59:23;19.63;;;9.48;;
66585;SDS011;53444;45.822;16.092;2024-01-30T06:01:51;26.15;;;11.25;;
66585;SDS011;53444;45.822;16.092;2024-01-30T06:04:18;20.85;;;10.57;;
66585;SDS011;53444;45.822;16.092;2024-01-30T06:06:49;22.45;;;10.43;;
66585;SDS011;53444;45.822;16.092;2024-01-30T06:09:15;26.80;;;13.23;;
66585;SDS011;53444;45.822;16.092;2024-01-30T06:11:42;34.47;;;15.95;;
66585;SDS011;53444;45.822;16.092;2024-01-30T06:14:10;37.95;;;16.23;;
66585;SDS011;53444;45.822;16.092;2024-01-30T06:16:38;41.80;;;19.50;;
66585;SDS011;53444;45.822;16.092;2024-01-30T06:19:05;39.67;;;18.23;;
66585;SDS011;53444;45.822;16.092;2024-01-30T06:21:33;33.57;;;15.37;;
66585;SDS011;53444;45.822;16.092;2024-01-30T06:24:01;34.58;;;16.58;;
66585;SDS011;53444;45.822;16.092;2024-01-30T06:26:29;32.90;;;15.32;;
66585;SDS011;53444;45.822;16.092;2024-01-30T06:28:56;37.58;;;14.95;;
66585;SDS011;53444;45.822;16.092;2024-01-30T06:31:22;32.28;;;13.93;;
66585;SDS011;53444;45.822;16.092;2024-01-30T06:33:51;35.97;;;15.73;;
66585;SDS011;53444;45.822;16.092;2024-01-30T06:36:18;34.28;;;14.50;;
66585;SDS011;53444;45.822;16.092;2024-01-30T06:38:45;33.40;;;14.73;;
66585;SDS011;53444;45.822;16.092;2024-01-30T06:41:12;31.88;;;14.13;;
66585;SDS011;53444;45.822;16.092;2024-01-30T06:43:40;33.47;;;15.00;;
66585;SDS011;53444;45.822;16.092;2024-01-30T06:46:07;32.07;;;15.17;;
66585;SDS011;53444;45.822;16.092;2024-01-30T06:48:34;31.77;;;14.75;;
66585;SDS011;53444;45.822;16.092;2024-01-30T06:51:02;35.30;;;15.25;;
66585;SDS011;53444;45.822;16.092;2024-01-30T06:53:29;32.30;;;14.40;;
66585;SDS011;53444;45.822;16.092;2024-01-30T06:55:57;29.55;;;14.98;;
66585;SDS011;53444;45.822;16.092;2024-01-30T06:58:24;38.67;;;15.73;;
66585;SDS011;53444;45.822;16.092;2024-01-30T07:00:51;41.33;;;15.95;;
66585;SDS011;53444;45.822;16.092;2024-01-30T07:03:18;33.00;;;15.93;;
66585;SDS011;53444;45.822;16.092;2024-01-30T07:05:45;31.88;;;14.15;;
66585;SDS011;53444;45.822;16.092;2024-01-30T07:08:13;29.98;;;12.55;;
66585;SDS011;53444;45.822;16.092;2024-01-30T07:10:42;30.03;;;13.70;;
66585;SDS011;53444;45.822;16.092;2024-01-30T07:13:10;32.03;;;14.32;;
66585;SDS011;53444;45.822;16.092;2024-01-30T07:15:37;38.83;;;15.95;;
66585;SDS011;53444;45.822;16.092;2024-01-30T07:18:05;53.40;;;17.30;;
66585;SDS011;53444;45.822;16.092;2024-01-30T07:20:35;79.82;;;21.55;;
66585;SDS011;53444;45.822;16.092;2024-01-30T07:23:02;49.33;;;16.90;;
66585;SDS011;53444;45.822;16.092;2024-01-30T07:25:50;38.42;;;15.95;;
66585;SDS011;53444;45.822;16.092;2024-01-30T07:28:18;37.92;;;14.65;;
66585;SDS011;53444;45.822;16.092;2024-01-30T07:30:45;28.50;;;14.13;;
66585;SDS011;53444;45.822;16.092;2024-01-30T07:33:13;37.67;;;14.38;;
66585;SDS011;53444;45.822;16.092;2024-01-30T07:35:40;44.07;;;16.10;;
66585;SDS011;53444;45.822;16.092;2024-01-30T07:38:08;40.05;;;15.63;;
66585;SDS011;53444;45.822;16.092;2024-01-30T07:40:36;38.75;;;16.10;;
66585;SDS011;53444;45.822;16.092;2024-01-30T07:43:04;38.67;;;17.08;;
66585;SDS011;53444;45.822;16.092;2024-01-30T07:45:32;40.42;;;17.60;;
66585;SDS011;53444;45.822;16.092;2024-01-30T07:47:59;64.20;;;20.00;;
66585;SDS011;53444;45.822;16.092;2024-01-30T07:50:26;148.77;;;29.35;;
66585;SDS011;53444;45.822;16.092;2024-01-30T07:52:53;197.63;;;28.80;;
66585;SDS011;53444;45.822;16.092;2024-01-30T07:55:20;88.45;;;21.38;;
66585;SDS011;53444;45.822;16.092;2024-01-30T07:57:49;90.32;;;22.23;;
66585;SDS011;53444;45.822;16.092;2024-01-30T08:00:18;60.83;;;19.37;;
66585;SDS011;53444;45.822;16.092;2024-01-30T08:02:45;52.20;;;18.40;;
66585;SDS011;53444;45.822;16.092;2024-01-30T08:05:12;194.32;;;29.77;;
66585;SDS011;53444;45.822;16.092;2024-01-30T08:07:40;164.68;;;32.97;;
66585;SDS011;53444;45.822;16.092;2024-01-30T08:10:08;74.63;;;22.63;;
66585;SDS011;53444;45.822;16.092;2024-01-30T08:12:35;39.77;;;19.50;;
66585;SDS011;53444;45.822;16.092;2024-01-30T08:15:02;45.95;;;21.20;;
66585;SDS011;53444;45.822;16.092;2024-01-30T08:17:32;47.35;;;22.67;;
66585;SDS011;53444;45.822;16.092;2024-01-30T08:19:59;49.22;;;21.55;;
66585;SDS011;53444;45.822;16.092;2024-01-30T08:22:27;49.17;;;22.77;;
66585;SDS011;53444;45.822;16.092;2024-01-30T08:24:54;49.87;;;23.97;;
66585;SDS011;53444;45.822;16.092;2024-01-30T08:27:21;188.02;;;36.45;;
66585;SDS011;53444;45.822;16.092;2024-01-30T08:29:48;93.78;;;32.17;;
66585;SDS011;53444;45.822;16.092;2024-01-30T08:32:16;62.78;;;27.27;;
66585;SDS011;53444;45.822;16.092;2024-01-30T08:34:44;98.70;;;27.63;;
66585;SDS011;53444;45.822;16.092;2024-01-30T08:37:11;232.73;;;40.20;;
66585;SDS011;53444;45.822;16.092;2024-01-30T08:39:41;77.95;;;22.65;;
66585;SDS011;53444;45.822;16.092;2024-01-30T08:42:08;40.78;;;19.13;;
66585;SDS011;53444;45.822;16.092;2024-01-30T08:44:35;72.15;;;23.77;;
66585;SDS011;53444;45.822;16.092;2024-01-30T08:47:02;50.35;;;22.02;;
66585;SDS011;53444;45.822;16.092;2024-01-30T08:49:29;64.17;;;20.97;;
66585;SDS011;53444;45.822;16.092;2024-01-30T08:51:57;44.53;;;20.13;;
66585;SDS011;53444;45.822;16.092;2024-01-30T08:54:25;44.03;;;18.52;;
66585;SDS011;53444;45.822;16.092;2024-01-30T08:56:53;40.53;;;17.85;;
66585;SDS011;53444;45.822;16.092;2024-01-30T08:59:21;31.95;;;16.33;;
66585;SDS011;53444;45.822;16.092;2024-01-30T09:01:48;33.53;;;15.37;;
66585;SDS011;53444;45.822;16.092;2024-01-30T09:04:18;33.50;;;15.63;;
66585;SDS011;53444;45.822;16.092;2024-01-30T09:06:45;32.95;;;15.63;;
66585;SDS011;53444;45.822;16.092;2024-01-30T09:09:14;55.35;;;21.63;;
66585;SDS011;53444;45.822;16.092;2024-01-30T09:11:41;124.43;;;41.00;;
66585;SDS011;53444;45.822;16.092;2024-01-30T09:14:08;61.17;;;25.80;;
66585;SDS011;53444;45.822;16.092;2024-01-30T09:16:35;56.47;;;22.95;;
66585;SDS011;53444;45.822;16.092;2024-01-30T09:19:02;39.90;;;19.05;;
66585;SDS011;53444;45.822;16.092;2024-01-30T09:21:29;29.95;;;16.83;;
66585;SDS011;53444;45.822;16.092;2024-01-30T09:26:22;90.70;;;31.07;;
66585;SDS011;53444;45.822;16.092;2024-01-30T09:28:49;65.50;;;20.95;;
66585;SDS011;53444;45.822;16.092;2024-01-30T09:31:16;43.00;;;18.33;;
66585;SDS011;53444;45.822;16.092;2024-01-30T09:33:43;37.53;;;17.98;;
66585;SDS011;53444;45.822;16.092;2024-01-30T09:36:13;46.53;;;18.67;;
66585;SDS011;53444;45.822;16.092;2024-01-30T09:38:43;41.50;;;18.13;;
66585;SDS011;53444;45.822;16.092;2024-01-30T09:41:11;48.17;;;18.77;;
66585;SDS011;53444;45.822;16.092;2024-01-30T09:43:40;77.43;;;19.23;;
66585;SDS011;53444;45.822;16.092;2024-01-30T09:46:13;31.13;;;16.15;;
66585;SDS011;53444;45.822;16.092;2024-01-30T09:48:42;35.42;;;15.68;;
66585;SDS011;53444;45.822;16.092;2024-01-30T09:51:12;38.30;;;16.20;;
66585;SDS011;53444;45.822;16.092;2024-01-30T09:53:42;34.35;;;17.20;;
66585;SDS011;53444;45.822;16.092;2024-01-30T09:56:09;39.58;;;18.30;;
66585;SDS011;53444;45.822;16.092;2024-01-30T09:58:36;43.88;;;20.48;;
66585;SDS011;53444;45.822;16.092;2024-01-30T10:01:07;45.35;;;19.42;;
66585;SDS011;53444;45.822;16.092;2024-01-30T10:03:34;42.53;;;20.07;;
66585;SDS011;53444;45.822;16.092;2024-01-30T10:06:01;32.88;;;17.55;;
66585;SDS011;53444;45.822;16.092;2024-01-30T10:08:29;39.95;;;17.80;;
66585;SDS011;53444;45.822;16.092;2024-01-30T10:10:58;34.25;;;15.27;;
66585;SDS011;53444;45.822;16.092;2024-01-30T10:13:26;36.47;;;16.88;;
66585;SDS011;53444;45.822;16.092;2024-01-30T10:15:53;35.53;;;18.93;;
66585;SDS011;53444;45.822;16.092;2024-01-30T10:18:23;36.22;;;18.70;;
66585;SDS011;53444;45.822;16.092;2024-01-30T10:20:51;33.22;;;16.63;;
66585;SDS011;53444;45.822;16.092;2024-01-30T10:23:18;31.55;;;14.93;;
66585;SDS011;53444;45.822;16.092;2024-01-30T10:25:45;37.13;;;16.05;;
66585;SDS011;53444;45.822;16.092;2024-01-30T10:28:13;31.73;;;15.47;;
66585;SDS011;53444;45.822;16.092;2024-01-30T10:30:40;37.60;;;18.13;;
66585;SDS011;53444;45.822;16.092;2024-01-30T10:33:07;37.78;;;17.65;;
66585;SDS011;53444;45.822;16.092;2024-01-30T10:35:36;32.30;;;15.70;;
66585;SDS011;53444;45.822;16.092;2024-01-30T10:38:03;33.63;;;14.43;;
66585;SDS011;53444;45.822;16.092;2024-01-30T10:40:33;29.90;;;14.37;;
66585;SDS011;53444;45.822;16.092;2024-01-30T10:43:02;32.80;;;15.05;;
66585;SDS011;53444;45.822;16.092;2024-01-30T10:45:31;37.95;;;18.38;;
66585;SDS011;53444;45.822;16.092;2024-01-30T10:48:00;31.90;;;16.38;;
66585;SDS011;53444;45.822;16.092;2024-01-30T10:50:29;31.67;;;15.05;;
66585;SDS011;53444;45.822;16.092;2024-01-30T10:52:59;29.83;;;15.00;;
66585;SDS011;53444;45.822;16.092;2024-01-30T10:55:27;28.40;;;15.05;;
66585;SDS011;53444;45.822;16.092;2024-01-30T10:57:55;37.25;;;16.15;;
66585;SDS011;53444;45.822;16.092;2024-01-30T11:00:24;29.08;;;14.63;;
66585;SDS011;53444;45.822;16.092;2024-01-30T11:02:52;35.75;;;14.35;;
66585;SDS011;53444;45.822;16.092;2024-01-30T11:05:23;30.50;;;14.83;;
66585;SDS011;53444;45.822;16.092;2024-01-30T11:07:51;29.42;;;14.98;;
66585;SDS011;53444;45.822;16.092;2024-01-30T11:10:20;32.45;;;14.68;;
66585;SDS011;53444;45.822;16.092;2024-01-30T11:12:47;32.17;;;15.85;;
66585;SDS011;53444;45.822;16.092;2024-01-30T11:15:17;29.17;;;13.80;;
66585;SDS011;53444;45.822;16.092;2024-01-30T11:17:44;24.60;;;13.23;;
66585;SDS011;53444;45.822;16.092;2024-01-30T11:20:16;27.38;;;13.52;;
66585;SDS011;53444;45.822;16.092;2024-01-30T11:22:46;31.02;;;14.52;;
66585;SDS011;53444;45.822;16.092;2024-01-30T11:25:16;31.35;;;14.95;;
66585;SDS011;53444;45.822;16.092;2024-01-30T11:27:46;29.48;;;15.02;;
66585;SDS011;53444;45.822;16.092;2024-01-30T11:30:22;35.00;;;14.80;;
66585;SDS011;53444;45.822;16.092;2024-01-30T11:33:03;26.10;;;14.88;;
66585;SDS011;53444;45.822;16.092;2024-01-30T11:35:32;27.98;;;15.15;;
66585;SDS011;53444;45.822;16.092;2024-01-30T11:38:00;38.00;;;18.05;;
66585;SDS011;53444;45.822;16.092;2024-01-30T11:40:49;32.60;;;14.32;;
66585;SDS011;53444;45.822;16.092;2024-01-30T11:43:55;33.47;;;16.13;;
66585;SDS011;53444;45.822;16.092;2024-01-30T11:46:24;23.02;;;14.05;;
66585;SDS011;53444;45.822;16.092;2024-01-30T11:48:52;24.77;;;13.85;;
66585;SDS011;53444;45.822;16.092;2024-01-30T11:51:19;27.60;;;15.18;;
66585;SDS011;53444;45.822;16.092;2024-01-30T11:53:49;40.75;;;15.13;;
66585;SDS011;53444;45.822;16.092;2024-01-30T11:56:16;24.30;;;13.55;;
66585;SDS011;53444;45.822;16.092;2024-01-30T11:58:43;32.33;;;17.10;;
66585;SDS011;53444;45.822;16.092;2024-01-30T12:01:12;24.13;;;13.80;;
66585;SDS011;53444;45.822;16.092;2024-01-30T12:03:39;21.30;;;11.15;;
66585;SDS011;53444;45.822;16.092;2024-01-30T12:06:05;23.92;;;12.40;;
66585;SDS011;53444;45.822;16.092;2024-01-30T12:08:32;22.07;;;12.83;;
66585;SDS011;53444;45.822;16.092;2024-01-30T12:10:59;22.27;;;12.98;;
66585;SDS011;53444;45.822;16.092;2024-01-30T12:13:30;27.95;;;13.18;;
66585;SDS011;53444;45.822;16.092;2024-01-30T12:15:57;20.75;;;11.88;;
66585;SDS011;53444;45.822;16.092;2024-01-30T12:18:26;27.42;;;12.95;;
66585;SDS011;53444;45.822;16.092;2024-01-30T12:20:59;23.17;;;12.35;;
66585;SDS011;53444;45.822;16.092;2024-01-30T12:23:26;25.17;;;13.77;;
66585;SDS011;53444;45.822;16.092;2024-01-30T12:25:54;24.10;;;13.43;;
66585;SDS011;53444;45.822;16.092;2024-01-30T12:28:21;25.23;;;14.35;;
66585;SDS011;53444;45.822;16.092;2024-01-30T12:30:48;24.90;;;14.23;;
66585;SDS011;53444;45.822;16.092;2024-01-30T12:33:16;28.17;;;15.52;;
66585;SDS011;53444;45.822;16.092;2024-01-30T12:35:47;30.05;;;14.32;;
66585;SDS011;53444;45.822;16.092;2024-01-30T12:38:14;28.00;;;14.70;;
66585;SDS011;53444;45.822;16.092;2024-01-30T12:40:41;26.90;;;15.60;;
66585;SDS011;53444;45.822;16.092;2024-01-30T12:43:08;25.83;;;15.02;;
66585;SDS011;53444;45.822;16.092;2024-01-30T12:45:36;26.75;;;14.20;;
66585;SDS011;53444;45.822;16.092;2024-01-30T12:48:04;24.67;;;14.13;;
66585;SDS011;53444;45.822;16.092;2024-01-30T12:50:31;27.02;;;14.80;;
66585;SDS011;53444;45.822;16.092;2024-01-30T12:53:00;21.80;;;12.13;;
66585;SDS011;53444;45.822;16.092;2024-01-30T12:55:27;26.92;;;15.23;;
66585;SDS011;53444;45.822;16.092;2024-01-30T12:57:55;32.63;;;17.65;;
66585;SDS011;53444;45.822;16.092;2024-01-30T13:00:26;25.20;;;15.55;;
66585;SDS011;53444;45.822;16.092;2024-01-30T13:02:53;26.40;;;14.75;;
66585;SDS011;53444;45.822;16.092;2024-01-30T13:05:24;28.98;;;15.40;;
66585;SDS011;53444;45.822;16.092;2024-01-30T13:07:51;31.60;;;15.80;;
66585;SDS011;53444;45.822;16.092;2024-01-30T13:10:20;30.00;;;16.88;;
66585;SDS011;53444;45.822;16.092;2024-01-30T13:12:46;45.78;;;16.08;;
66585;SDS011;53444;45.822;16.092;2024-01-30T13:15:13;28.98;;;14.18;;
66585;SDS011;53444;45.822;16.092;2024-01-30T13:17:40;34.72;;;17.45;;
66585;SDS011;53444;45.822;16.092;2024-01-30T13:20:09;31.15;;;15.10;;
66585;SDS011;53444;45.822;16.092;2024-01-30T13:22:38;28.75;;;13.48;;
66585;SDS011;53444;45.822;16.092;2024-01-30T13:25:05;29.20;;;14.25;;
66585;SDS011;53444;45.822;16.092;2024-01-30T13:27:34;32.90;;;15.13;;
66585;SDS011;53444;45.822;16.092;2024-01-30T13:30:04;52.58;;;16.30;;
66585;SDS011;53444;45.822;16.092;2024-01-30T13:32:33;35.63;;;16.23;;
66585;SDS011;53444;45.822;16.092;2024-01-30T13:34:59;46.28;;;15.27;;
66585;SDS011;53444;45.822;16.092;2024-01-30T13:37:26;37.72;;;15.05;;
66585;SDS011;53444;45.822;16.092;2024-01-30T13:39:53;37.42;;;13.45;;
66585;SDS011;53444;45.822;16.092;2024-01-30T13:42:20;24.15;;;11.77;;
66585;SDS011;53444;45.822;16.092;2024-01-30T13:44:50;25.63;;;12.00;;
66585;SDS011;53444;45.822;16.092;2024-01-30T13:47:17;37.17;;;13.25;;
66585;SDS011;53444;45.822;16.092;2024-01-30T13:49:46;34.85;;;14.07;;
66585;SDS011;53444;45.822;16.092;2024-01-30T13:52:13;28.30;;;11.55;;
66585;SDS011;53444;45.822;16.092;2024-01-30T13:54:40;18.70;;;11.02;;
66585;SDS011;53444;45.822;16.092;2024-01-30T13:57:07;24.15;;;11.90;;
66585;SDS011;53444;45.822;16.092;2024-01-30T13:59:34;25.35;;;12.18;;
66585;SDS011;53444;45.822;16.092;2024-01-30T14:02:02;21.55;;;12.32;;
66585;SDS011;53444;45.822;16.092;2024-01-30T14:04:29;21.35;;;11.32;;
66585;SDS011;53444;45.822;16.092;2024-01-30T14:06:56;20.50;;;12.30;;
66585;SDS011;53444;45.822;16.092;2024-01-30T14:09:23;20.90;;;12.48;;
66585;SDS011;53444;45.822;16.092;2024-01-30T14:11:50;22.05;;;12.50;;
66585;SDS011;53444;45.822;16.092;2024-01-30T14:14:17;23.48;;;12.38;;
66585;SDS011;53444;45.822;16.092;2024-01-30T14:16:44;20.83;;;12.80;;
66585;SDS011;53444;45.822;16.092;2024-01-30T14:19:12;24.33;;;12.48;;
66585;SDS011;53444;45.822;16.092;2024-01-30T14:21:39;25.48;;;12.98;;
66585;SDS011;53444;45.822;16.092;2024-01-30T14:24:06;24.00;;;12.45;;